KAMA/AMA METAR and TAF weather

Enter ICAO airport designator
Station Type Date Time Source
KAMA METAR 2020/09/27 15:53 UTC NOAA

KAMA 271553Z 33020G27KT 10SM CLR 19/07 A2985 RMK AO2 PK WND 32029/1459 SLP058 T01940067


Station Type Date Time Source
KAMA Decoded METAR 2020/09/27 15:53 UTC NOAA

AMARILLO INTERNATIONAL AIRPORT, TX, United States (KAMA) 35-13N 101-43W 1093M
Sep 27, 2020 - 11:53 AM EDT / 2020.09.27 1553 UTC
Wind: from the NNW (330 degrees) at 23 MPH (20 KT) gusting to 31 MPH (27 KT):0
Visibility: 10 mile(s):0
Sky conditions: clear
Temperature: 66.9 F (19.4 C)
Dew Point: 44.1 F (6.7 C)
Relative Humidity: 43%
Pressure (altimeter): 29.85 in. Hg (1010 hPa)
ob: KAMA 271553Z 33020G27KT 10SM CLR 19/07 A2985 RMK AO2 PK WND 32029/1459 SLP058 T01940067
cycle: 16

Station Type Date Time Source
KAMA TAF 2020/09/27 12:22 UTC NOAA

TAF KAMA 271120Z 2712/2812 32018G28KT P6SM FEW300
FM271700 36022G32KT P6SM SKC
FM280200 04024G36KT P6SM FEW300
FM280500 01018G26KT P6SM FEW090
FM280900 35012KT P6SM SCT080

Example: see airport list